createdAt,value
2023-01-29T00:00:05.786Z,16.60
2023-01-29T00:05:26.525Z,13.60
2023-01-29T00:10:29.481Z,15.10
2023-01-29T00:15:33.041Z,14.57
2023-01-29T00:20:35.185Z,13.18
2023-01-29T00:25:37.325Z,12.93
2023-01-29T00:30:41.507Z,12.98
2023-01-29T00:35:43.625Z,13.38
2023-01-29T00:40:45.807Z,12.38
2023-01-29T00:45:49.336Z,11.65
2023-01-29T00:50:51.484Z,11.77
2023-01-29T00:55:53.645Z,14.48
2023-01-29T01:00:57.329Z,12.02
2023-01-29T01:06:05.832Z,11.23
2023-01-29T01:11:07.968Z,11.80
2023-01-29T01:16:13.639Z,7.80
2023-01-29T01:21:15.748Z,9.88
2023-01-29T01:26:18.173Z,13.18
2023-01-29T01:31:21.862Z,9.73
2023-01-29T01:36:24.026Z,8.70
2023-01-29T01:41:26.140Z,11.55
2023-01-29T01:46:32.223Z,9.38
2023-01-29T01:51:40.353Z,7.93
2023-01-29T01:56:46.587Z,9.05
2023-01-29T02:01:54.230Z,8.63
2023-01-29T02:06:58.510Z,9.55
2023-01-29T02:12:02.448Z,12.73
2023-01-29T02:17:07.164Z,8.77
2023-01-29T02:22:37.012Z,8.57
2023-01-29T02:28:14.314Z,9.40
2023-01-29T02:33:25.987Z,9.43
2023-01-29T02:38:36.679Z,8.85
2023-01-29T02:43:45.467Z,12.15
2023-01-29T02:48:55.578Z,8.27
2023-01-29T02:54:02.518Z,8.63
2023-01-29T02:59:10.054Z,9.48
2023-01-29T03:04:19.704Z,8.98
2023-01-29T03:09:28.553Z,12.45
2023-01-29T03:14:36.537Z,9.85
2023-01-29T03:19:42.607Z,10.50
2023-01-29T03:24:48.226Z,9.40
2023-01-29T03:29:54.782Z,10.13
2023-01-29T03:35:02.293Z,12.18
2023-01-29T03:40:07.233Z,11.85
2023-01-29T03:45:18.338Z,13.25
2023-01-29T03:50:33.001Z,20.60
2023-01-29T03:55:41.939Z,12.63
2023-01-29T04:00:53.686Z,17.55
2023-01-29T04:06:03.455Z,15.82
2023-01-29T04:11:12.914Z,15.98
2023-01-29T04:16:19.662Z,16.50
2023-01-29T04:21:22.808Z,22.40
2023-01-29T04:26:56.782Z,23.85
2023-01-29T04:32:09.583Z,21.88
2023-01-29T04:37:17.017Z,22.65
2023-01-29T04:42:29.362Z,20.25
2023-01-29T04:47:41.776Z,26.13
2023-01-29T04:52:51.100Z,23.58
2023-01-29T04:57:59.042Z,22.80
2023-01-29T05:03:02.918Z,23.35
2023-01-29T05:08:05.989Z,22.65
2023-01-29T05:13:11.866Z,24.50
2023-01-29T05:18:15.469Z,23.08
2023-01-29T05:23:18.442Z,25.65
2023-01-29T05:28:20.595Z,24.08
2023-01-29T05:33:25.891Z,23.80
2023-01-29T05:38:29.303Z,27.40
2023-01-29T05:43:31.487Z,29.35
2023-01-29T05:48:35.055Z,26.95
2023-01-29T05:53:37.236Z,21.77
2023-01-29T05:58:39.534Z,25.65
2023-01-29T06:03:43.450Z,20.95
2023-01-29T06:08:45.695Z,19.33
2023-01-29T06:13:48.026Z,23.90
2023-01-29T06:18:51.609Z,23.02
2023-01-29T06:23:54.130Z,30.52
2023-01-29T06:28:56.323Z,24.20
2023-01-29T06:33:59.818Z,22.35
2023-01-29T06:39:02.059Z,22.63
2023-01-29T06:44:04.325Z,28.77
2023-01-29T06:49:07.857Z,26.80
2023-01-29T06:54:10.213Z,26.13
2023-01-29T06:59:12.433Z,23.67
2023-01-29T07:04:15.974Z,26.63
2023-01-29T07:09:18.159Z,25.05
2023-01-29T07:14:20.395Z,26.48
2023-01-29T07:19:23.912Z,25.17
2023-01-29T07:24:26.292Z,22.30
2023-01-29T07:29:28.474Z,28.65
2023-01-29T07:34:32.146Z,28.15
2023-01-29T07:39:34.236Z,25.98
2023-01-29T07:44:36.330Z,24.05
2023-01-29T07:49:39.902Z,27.88
2023-01-29T07:54:42.007Z,24.27
2023-01-29T07:59:44.196Z,24.48
2023-01-29T08:04:47.737Z,26.70
2023-01-29T08:09:50.500Z,29.42
2023-01-29T08:14:52.630Z,25.13
2023-01-29T08:19:56.257Z,24.10
2023-01-29T08:25:06.428Z,26.75
2023-01-29T08:30:12.586Z,25.17
2023-01-29T08:35:16.602Z,21.95
2023-01-29T08:40:19.615Z,26.33
2023-01-29T08:45:21.893Z,27.95
2023-01-29T08:50:25.487Z,26.33
2023-01-29T08:55:30.592Z,23.58
2023-01-29T09:00:32.739Z,26.85
2023-01-29T09:05:37.782Z,26.23
2023-01-29T09:10:39.994Z,26.05
2023-01-29T09:15:42.091Z,24.50
2023-01-29T09:20:45.690Z,24.63
2023-01-29T09:25:47.864Z,26.50
2023-01-29T09:30:50.081Z,23.02
2023-01-29T09:35:53.851Z,25.40
2023-01-29T09:41:04.215Z,24.30
2023-01-29T09:46:14.760Z,26.70
2023-01-29T09:51:29.040Z,22.83
2023-01-29T09:56:31.976Z,25.92
2023-01-29T10:01:42.349Z,26.30
2023-01-29T10:06:57.657Z,24.38
2023-01-29T10:12:12.972Z,26.98
2023-01-29T10:17:41.648Z,21.05
2023-01-29T10:23:02.304Z,24.73
2023-01-29T10:28:16.976Z,21.58
2023-01-29T10:33:24.976Z,25.92
2023-01-29T10:38:38.611Z,28.00
2023-01-29T10:43:51.656Z,28.63
2023-01-29T10:49:05.352Z,32.80
2023-01-29T10:54:25.324Z,27.80
2023-01-29T10:59:46.166Z,27.60
2023-01-29T11:04:48.674Z,29.02
2023-01-29T11:09:57.721Z,27.50
2023-01-29T11:15:06.095Z,31.90
2023-01-29T11:20:26.866Z,27.70
2023-01-29T11:25:31.462Z,29.58
2023-01-29T11:30:37.417Z,30.98
2023-01-29T11:35:39.510Z,29.80
2023-01-29T11:40:43.925Z,32.00
2023-01-29T11:45:47.220Z,30.27
2023-01-29T11:50:54.729Z,31.95
2023-01-29T11:55:58.301Z,28.30
2023-01-29T12:01:00.578Z,30.15
2023-01-29T12:06:06.710Z,30.38
2023-01-29T12:11:13.570Z,28.75
2023-01-29T12:16:26.907Z,30.52
2023-01-29T12:21:35.694Z,28.63
2023-01-29T12:26:45.710Z,28.75
2023-01-29T12:31:58.290Z,29.23
2023-01-29T12:37:09.485Z,36.53
2023-01-29T12:42:18.139Z,29.95
2023-01-29T12:47:24.436Z,26.17
2023-01-29T12:52:37.683Z,27.80
2023-01-29T12:57:46.743Z,27.88
2023-01-29T13:02:55.597Z,26.90
2023-01-29T13:08:06.362Z,23.33
2023-01-29T13:13:19.534Z,26.85
2023-01-29T13:18:40.224Z,30.13
2023-01-29T13:23:45.175Z,26.00
2023-01-29T13:28:51.121Z,32.13
2023-01-29T13:33:55.386Z,28.33
2023-01-29T13:39:19.298Z,28.88
2023-01-29T13:44:25.082Z,26.75
2023-01-29T13:49:34.947Z,30.10
2023-01-29T13:54:38.534Z,31.00
2023-01-29T13:59:52.966Z,25.90
2023-01-29T14:05:28.131Z,30.30
2023-01-29T14:10:34.420Z,29.98
2023-01-29T14:15:38.408Z,26.63
2023-01-29T14:20:50.829Z,26.60
2023-01-29T14:25:54.762Z,25.98
2023-01-29T14:30:57.198Z,28.92
2023-01-29T14:36:03.369Z,26.63
2023-01-29T14:41:21.953Z,25.63
2023-01-29T14:46:44.938Z,21.90
2023-01-29T14:51:49.141Z,25.85
2023-01-29T14:57:00.523Z,24.52
2023-01-29T15:02:15.114Z,26.77
2023-01-29T15:07:27.871Z,27.65
2023-01-29T15:12:41.927Z,28.75
2023-01-29T15:17:57.869Z,29.77
2023-01-29T15:23:01.232Z,31.27
2023-01-29T15:28:07.593Z,27.45
2023-01-29T15:33:12.065Z,27.77
2023-01-29T15:38:17.848Z,23.35
2023-01-29T15:43:26.429Z,26.90
2023-01-29T15:48:33.432Z,26.17
2023-01-29T15:53:42.837Z,28.30
2023-01-29T15:58:51.308Z,28.75
2023-01-29T16:03:54.807Z,26.85
2023-01-29T16:08:57.748Z,27.40
2023-01-29T16:14:06.436Z,25.85
2023-01-29T16:19:21.464Z,30.48
2023-01-29T16:24:25.360Z,24.23
2023-01-29T16:29:33.982Z,25.83
2023-01-29T16:34:40.631Z,38.58
2023-01-29T16:39:49.682Z,28.30
2023-01-29T16:44:59.754Z,27.17
2023-01-29T16:50:23.523Z,25.23
2023-01-29T16:55:27.275Z,30.73
2023-01-29T17:00:32.299Z,31.92
2023-01-29T17:05:38.698Z,30.42
2023-01-29T17:10:48.845Z,33.03
2023-01-29T17:15:55.792Z,34.92
2023-01-29T17:21:01.718Z,33.20
2023-01-29T17:26:14.778Z,36.10
2023-01-29T17:31:28.238Z,39.80
2023-01-29T17:36:31.143Z,37.42
2023-01-29T17:41:37.348Z,45.75
2023-01-29T17:46:51.359Z,42.23
2023-01-29T17:52:00.771Z,45.85
2023-01-29T17:57:08.128Z,48.25
2023-01-29T18:02:29.793Z,49.40
2023-01-29T18:07:32.864Z,38.25
2023-01-29T18:12:35.689Z,42.58
2023-01-29T18:17:42.071Z,38.75
2023-01-29T18:22:46.985Z,43.43
2023-01-29T18:27:59.069Z,42.08
2023-01-29T18:33:03.344Z,40.10
2023-01-29T18:38:06.709Z,45.67
2023-01-29T18:43:09.804Z,39.90
2023-01-29T18:48:14.431Z,43.40
2023-01-29T18:53:17.604Z,46.45
2023-01-29T18:58:27.787Z,43.83
2023-01-29T19:03:42.408Z,46.85
2023-01-29T19:08:54.687Z,42.65
2023-01-29T19:13:59.403Z,43.05
2023-01-29T19:19:03.746Z,40.42
2023-01-29T19:24:10.028Z,39.25
2023-01-29T19:29:15.939Z,42.93
2023-01-29T19:34:20.260Z,40.00
2023-01-29T19:39:23.095Z,45.20
2023-01-29T19:44:25.696Z,35.40
2023-01-29T19:49:52.122Z,36.05
2023-01-29T19:54:54.631Z,42.05
2023-01-29T20:00:01.334Z,39.35
2023-01-29T20:05:06.836Z,36.70
2023-01-29T20:10:14.960Z,39.33
2023-01-29T20:15:20.450Z,49.80
2023-01-29T20:20:25.512Z,39.20
2023-01-29T20:25:35.441Z,36.03
2023-01-29T20:30:41.670Z,39.90
2023-01-29T20:35:46.413Z,39.35
2023-01-29T20:40:52.237Z,32.28
2023-01-29T20:45:58.207Z,36.38
2023-01-29T20:51:14.184Z,43.65
2023-01-29T20:56:23.740Z,40.67
2023-01-29T21:01:40.963Z,43.22
2023-01-29T21:06:51.359Z,47.00
2023-01-29T21:12:12.420Z,36.30
2023-01-29T21:17:15.379Z,34.88
2023-01-29T21:22:27.604Z,40.67
2023-01-29T21:27:35.374Z,42.20
2023-01-29T21:32:45.513Z,39.08
2023-01-29T21:37:52.651Z,34.70
2023-01-29T21:42:58.084Z,42.25
2023-01-29T21:48:10.581Z,29.77
2023-01-29T21:53:25.057Z,36.72
2023-01-29T21:58:28.976Z,36.70
2023-01-29T22:03:37.527Z,30.85
2023-01-29T22:08:45.113Z,30.95
2023-01-29T22:14:00.353Z,37.08
2023-01-29T22:19:08.500Z,32.05
2023-01-29T22:24:14.807Z,34.22
2023-01-29T22:29:20.084Z,34.55
2023-01-29T22:34:24.595Z,32.75
2023-01-29T22:39:29.645Z,31.80
2023-01-29T22:44:32.498Z,29.45
2023-01-29T22:49:42.976Z,36.55
2023-01-29T22:54:51.273Z,33.28
2023-01-29T22:59:57.741Z,32.80
2023-01-29T23:05:00.641Z,32.77
2023-01-29T23:10:08.798Z,32.78
2023-01-29T23:15:13.785Z,32.53
2023-01-29T23:20:19.044Z,31.30
2023-01-29T23:25:23.431Z,32.00
2023-01-29T23:30:28.825Z,24.80
2023-01-29T23:35:35.609Z,29.92
2023-01-29T23:40:46.868Z,31.45
2023-01-29T23:45:53.541Z,26.83
2023-01-29T23:50:56.361Z,24.45
2023-01-29T23:56:05.161Z,25.58
